Warrenton, NC (27589)

9:19 PM EDT on July 24, 2016 (GMT -0400)
RAWS | | Change Station
Active Advisory: Heat Advisory

Elev 120 ft 34.60 °N, 79.08 °W | Updated 1 hour ago

Clear
Clear
85.0 °F
Feels Like 95 °F
N
5.0
Wind Variable Wind from South
Gusts 12.0 mph

Today
High -- | Low -- °F
--% Chance of Precip.
Yesterday
High -- | Low -- °F
Precip. -- in
Pressure 30.07 in
Visibility 10.0 miles
Clouds Clear
Heat Index 95 °F
Dew Point 76.0 °F
Humidity 75%
Rainfall in
Snow Depth Not available.
6:13 AM 8:24 PM
Waning Gibbous, 71% visible
METAR KAVC 250116Z AUTO 00000KT 10SM CLR 26/24 A3007 RMK AO2 T02640244
Pressure 30.07 in
Visibility 10.0 miles
Clouds Clear
Heat Index 95 °F
Dew Point 76.0 °F
Humidity 75%
Rainfall in
Snow Depth Not available.
6:13 AM 8:24 PM
Waning Gibbous, 71% visible
METAR KAVC 250116Z AUTO 00000KT 10SM CLR 26/24 A3007 RMK AO2 T02640244

10-Day Weather Forecast

Almanac

Astronomy

Jul. 24, 2016 Rise Set
Actual Time
Civil Twilight
Nautical Twilight
Astronomical Twilight
Moon
Length of Visible Light
Length of Day
Tomorrow will be .
, % of the Moon is Illuminated

Today's Extremes

State Highs State Lows

Community

WunderPhotos

Upload Photos

1,927,225 photos uploaded!

WunderBlog® & News

Nearby

Air Quality

  Air Quality AQ Index Pollutant
Not available.

Snow Depth

Station Depth Elevation

Earthquake Activity

City Distance Mag. Time & Date
Minimum magnitude displayed is 2.5.

Coastal Water Temperatures

Place Temperature

Stations

Nearby Weather Stations

Station Location Temp. Windchill Dew Point Humidity Wind Precip. Elev Updated Type
                   

Watches & Warnings

Heat Advisory
Issued: 8:18 PM EDT Jul. 24, 2016 – National Weather Service

... Today's heat advisory has expired...

... A heat advisory remains in effect tomorrow from noon to 8 PM...

A heat advisory remains in effect from noon to 8 PM EDT Monday.

* Temperature... mid to upper 90s.

* Heat indices... around 105 degrees.

* Impacts... increased risk of heat related illnesses.

Precautionary/preparedness actions...

A heat advisory means that high heat and humidity will create a
situation in which heat illnesses are more likely to occur...
typically when heat indices reach or exceed 105 degrees. Avoid
prolonged exposure to direct sunshine. If you must be outside...
take frequent breaks in the shade or inside an air-conditioned
room... and drink plenty of water to avoid dehydration.